• Join FlightAware (Why Join?)
  • Login
  • US Flag 
08:51AM EST


 

Airport Tracker/Info


-or-


 

Live Flight TrackerFlight Track Log ✈ UAL33 ✈ 28-Apr-2014 ✈ RJAA / NRT - KLAX

Flight Track Log - Related Links

Times and Time Zones

All times are in EDT time to prevent confusion due to time zone crossing. See the UAL33 flight status page for this flight to view local times or setup timezone preferences in your user account.

Time Position Orientation Groundspeed Altitude Reporting Facility
EDT Latitude Longitude Course Direction KTS MPH feet Rate Location/Type
05:07AM 35.7219 140.4069 150° Southeast 184 212 1,700  Level FlightAware ADS-B
05:07AM 35.7101 140.4153 150° Southeast 186 214 2,300 2,229 Climbing FlightAware ADS-B
05:08AM 35.6954 140.4254 150° Southeast 191 220 3,000 1,773 Climbing FlightAware ADS-B
05:08AM 35.6749 140.4401 148° Southeast 195 224 3,600 1,067 Climbing FlightAware ADS-B
05:09AM 35.6572 140.4528 150° Southeast 243 280 3,800 2,025 Climbing FlightAware ADS-B
05:10AM 35.5918 140.4999 149° Southeast 265 305 6,300 2,471 Climbing FlightAware ADS-B
05:10AM 35.5527 140.5383 117° Southeast 288 331 8,000 1,950 Climbing FlightAware ADS-B
05:11AM 35.5436 140.6029 97° East 302 348 8,900 931 Climbing FlightAware ADS-B
05:11AM 35.5405 140.6352 97° East 301 346 8,900  Level FlightAware ADS-B
05:12AM 35.5367 140.6738 97° East 300 345 8,900  Level FlightAware ADS-B
05:12AM 35.5334 140.7056 97° East 301 346 8,900 150 Level FlightAware ADS-B
05:12AM 35.5298 140.7402 97° East 301 346 9,000 1,077 Climbing FlightAware ADS-B
05:13AM 35.5263 140.7721 96° East 302 348 9,600 1,729 Climbing FlightAware ADS-B
05:13AM 35.5187 140.8442 96° East 335 386 10,700 1,500 Climbing FlightAware ADS-B
05:14AM 35.5104 140.9230 93° East 372 428 11,600 1,770 Climbing FlightAware ADS-B
05:14AM 35.5126 140.9667 79° East 380 437 12,500 2,634 Climbing FlightAware ADS-B
05:15AM 35.5258 141.0087 65° Northeast 386 444 13,400 2,542 Climbing FlightAware ADS-B
05:15AM 35.5567 141.0889 66° East 397 457 15,000 2,354 Climbing FlightAware ADS-B
05:16AM 35.5874 141.1682 65° Northeast 409 471 16,500 2,148 Climbing FlightAware ADS-B
05:17AM 35.6224 141.2593 65° Northeast 424 488 17,900 1,537 Climbing FlightAware ADS-B
05:17AM 35.6573 141.3501 65° Northeast 454 522 18,600 1,050 Climbing FlightAware ADS-B
05:18AM 35.6943 141.4470 66° East 479 551 19,300 1,275 Climbing FlightAware ADS-B
05:19AM 35.7328 141.5486 65° Northeast 495 570 20,300 1,560 Climbing FlightAware ADS-B
05:20AM 35.7914 141.7033 66° East 508 585 21,900 1,576 Climbing FlightAware ADS-B
05:20AM 35.8296 141.8045 66° East 518 596 22,900 1,500 Climbing FlightAware ADS-B
05:21AM 35.8721 141.9174 65° Northeast 530 610 23,900 1,425 Climbing FlightAware ADS-B
05:22AM 35.9115 142.0224 65° Northeast 538 619 24,800 1,390 Climbing FlightAware ADS-B
05:22AM 35.9572 142.1452 65° Northeast 545 627 25,800 1,300 Climbing FlightAware ADS-B
05:25AM 36.1030 142.5386 66° East 560 644 28,700 88 Climbing FlightAware ADS-B
05:27AM 36.2551 142.8320 57° Northeast  Level Estimated
05:28AM 36.3315 142.9803 57° Northeast  Level Estimated
05:29AM 36.4077 143.1289 57° Northeast  Level Estimated
05:30AM 36.4838 143.2778 58° Northeast  Level Estimated
05:31AM 36.5596 143.4270 58° Northeast  Level Estimated
05:32AM 36.6353 143.5766 58° Northeast  Level Estimated
05:33AM 36.7108 143.7263 58° Northeast  Level Estimated
05:34AM 36.7861 143.8764 58° Northeast  Level Estimated
05:35AM 36.8612 144.0268 58° Northeast  Level Estimated
05:36AM 36.9362 144.1775 58° Northeast  Level Estimated
05:37AM 37.0109 144.3285 58° Northeast  Level Estimated
05:38AM 37.0854 144.4798 58° Northeast  Level Estimated
05:39AM 37.1598 144.6313 58° Northeast  Level Estimated
05:40AM 37.2340 144.7832 58° Northeast  Level Estimated
05:41AM 37.3079 144.9354 59° Northeast  Level Estimated
05:42AM 37.3817 145.0878 59° Northeast  Level Estimated
05:43AM 37.4553 145.2406 59° Northeast  Level Estimated
05:44AM 37.5286 145.3937 59° Northeast  Level Estimated
05:45AM 37.6018 145.5470 59° Northeast  Level Estimated
05:46AM 37.7313 145.6204 24° Northeast  Level FlightAware Approximate
05:47AM 37.8041 145.7745 66° East  Level Estimated
05:48AM 37.8627 145.9391 66° East  Level FlightAware Approximate
05:49AM 37.9210 146.1041 66° East  Level FlightAware Approximate
05:50AM 37.9791 146.2693 66° East  Level FlightAware Approximate
05:51AM 38.0370 146.4348 66° East  Level FlightAware Approximate
05:52AM 38.0946 146.6005 66° East  Level FlightAware Approximate
05:53AM 38.1520 146.7665 66° East  Level FlightAware Approximate
05:54AM 38.2092 146.9328 66° East  Level FlightAware Approximate
05:55AM 38.2661 147.0993 66° East  Level FlightAware Approximate
05:56AM 38.3228 147.2661 67° East  Level FlightAware Approximate
05:57AM 38.3793 147.4332 67° East  Level FlightAware Approximate
05:58AM 38.4355 147.6005 67° East  Level FlightAware Approximate
05:59AM 38.4915 147.7680 67° East  Level FlightAware Approximate
06:00AM 38.5473 147.9358 67° East  Level FlightAware Approximate
06:01AM 38.6028 148.1039 67° East  Level FlightAware Approximate
06:02AM 38.6581 148.2723 67° East  Level FlightAware Approximate
06:03AM 38.7131 148.4409 67° East  Level FlightAware Approximate
06:04AM 38.7679 148.6097 67° East  Level FlightAware Approximate
06:05AM 38.8224 148.7789 67° East  Level FlightAware Approximate
06:06AM 38.8767 148.9482 68° East  Level FlightAware Approximate
06:07AM 38.9308 149.1179 68° East  Level FlightAware Approximate
06:08AM 38.9846 149.2878 68° East  Level FlightAware Approximate
06:09AM 39.0382 149.4579 68° East  Level FlightAware Approximate
06:10AM 39.0915 149.6283 68° East  Level FlightAware Approximate
06:11AM 39.1597 149.7902 47° Northeast  Level Estimated
06:12AM 39.2563 149.9261 47° Northeast  Level FlightAware Approximate
06:13AM 39.3527 150.0624 48° Northeast  Level FlightAware Approximate
06:14AM 39.4490 150.1991 48° Northeast  Level FlightAware Approximate
06:15AM 39.5451 150.3361 48° Northeast  Level FlightAware Approximate
06:16AM 39.6411 150.4735 48° Northeast  Level FlightAware Approximate
06:17AM 39.7369 150.6113 48° Northeast  Level FlightAware Approximate
06:18AM 39.8325 150.7495 48° Northeast  Level FlightAware Approximate
06:19AM 39.9280 150.8881 48° Northeast  Level FlightAware Approximate
06:20AM 40.0233 151.0271 48° Northeast  Level FlightAware Approximate
06:21AM 40.1184 151.1664 48° Northeast  Level FlightAware Approximate
06:22AM 40.2134 151.3061 48° Northeast  Level FlightAware Approximate
06:23AM 40.3082 151.4462 48° Northeast  Level FlightAware Approximate
06:24AM 40.4028 151.5868 48° Northeast  Level FlightAware Approximate
06:25AM 40.4973 151.7277 49° Northeast  Level FlightAware Approximate
06:26AM 40.5916 151.8690 49° Northeast  Level FlightAware Approximate
06:27AM 40.6857 152.0107 49° Northeast  Level FlightAware Approximate
06:28AM 40.7796 152.1528 49° Northeast  Level FlightAware Approximate
06:29AM 40.8734 152.2953 49° Northeast  Level FlightAware Approximate
06:30AM 40.9670 152.4383 49° Northeast  Level FlightAware Approximate
06:31AM 41.0604 152.5816 49° Northeast  Level FlightAware Approximate
06:32AM 41.1536 152.7253 49° Northeast  Level FlightAware Approximate
06:33AM 41.2467 152.8694 49° Northeast  Level FlightAware Approximate
06:34AM 41.3396 153.0140 49° Northeast  Level FlightAware Approximate
06:35AM 41.4323 153.1590 50° Northeast  Level FlightAware Approximate
06:36AM 41.5248 153.3044 50° Northeast  Level FlightAware Approximate
06:37AM 41.6171 153.4501 50° Northeast  Level FlightAware Approximate
06:38AM 41.7092 153.5963 50° Northeast  Level FlightAware Approximate
06:39AM 41.8012 153.7430 50° Northeast  Level FlightAware Approximate
06:40AM 41.8930 153.8900 50° Northeast  Level FlightAware Approximate
06:41AM 41.9846 154.0375 50° Northeast  Level FlightAware Approximate
06:42AM 42.0760 154.1854 50° Northeast  Level FlightAware Approximate
06:43AM 42.1672 154.3337 50° Northeast  Level FlightAware Approximate
06:44AM 42.2582 154.4825 50° Northeast  Level FlightAware Approximate
06:45AM 42.3490 154.6317 50° Northeast  Level FlightAware Approximate
06:46AM 42.4396 154.7813 51° Northeast  Level FlightAware Approximate
06:47AM 42.5300 154.9313 51° Northeast  Level FlightAware Approximate
06:48AM 42.6203 155.0818 51° Northeast  Level FlightAware Approximate
06:49AM 42.7103 155.2327 51° Northeast  Level FlightAware Approximate
06:50AM 42.8005 155.3846 51° Northeast  Level FlightAware Approximate
06:51AM 42.8904 155.5370 51° Northeast  Level FlightAware Approximate
06:52AM 42.9489 155.7158 52° Northeast  Level Estimated
06:53AM 43.0384 155.8690 51° Northeast  Level FlightAware Approximate
06:54AM 43.1277 156.0226 51° Northeast  Level FlightAware Approximate
06:55AM 43.2168 156.1767 52° Northeast  Level FlightAware Approximate
06:56AM 43.3057 156.3312 52° Northeast  Level FlightAware Approximate
06:57AM 43.3944 156.4862 52° Northeast  Level FlightAware Approximate
06:58AM 43.4829 156.6417 52° Northeast  Level FlightAware Approximate
06:59AM 43.5712 156.7975 52° Northeast  Level FlightAware Approximate
07:00AM 43.6592 156.9539 52° Northeast  Level FlightAware Approximate
07:01AM 43.7471 157.1107 52° Northeast  Level FlightAware Approximate
07:02AM 43.8347 157.2680 52° Northeast  Level FlightAware Approximate
07:03AM 43.9221 157.4257 52° Northeast  Level FlightAware Approximate
07:04AM 44.0093 157.5839 52° Northeast  Level FlightAware Approximate
07:05AM 44.0963 157.7426 53° Northeast  Level FlightAware Approximate
07:06AM 44.1830 157.9017 53° Northeast  Level FlightAware Approximate
07:07AM 44.2696 158.0613 53° Northeast  Level FlightAware Approximate
07:08AM 44.3559 158.2214 53° Northeast  Level FlightAware Approximate
07:09AM 44.4420 158.3819 53° Northeast  Level FlightAware Approximate
07:10AM 44.5279 158.5429 53° Northeast  Level FlightAware Approximate
07:11AM 44.6135 158.7044 53° Northeast  Level FlightAware Approximate
07:12AM 44.6989 158.8663 53° Northeast  Level FlightAware Approximate
07:13AM 44.7841 159.0288 54° Northeast  Level FlightAware Approximate
07:14AM 44.8690 159.1917 54° Northeast  Level FlightAware Approximate
07:15AM 44.9538 159.3551 54° Northeast  Level FlightAware Approximate
07:16AM 45.0382 159.5190 54° Northeast  Level FlightAware Approximate
07:17AM 45.1225 159.6834 54° Northeast  Level FlightAware Approximate
07:18AM 45.2065 159.8482 54° Northeast  Level FlightAware Approximate
07:19AM 45.2903 160.0135 54° Northeast  Level FlightAware Approximate
07:20AM 45.3738 160.1794 54° Northeast  Level FlightAware Approximate
07:21AM 45.4571 160.3457 54° Northeast  Level FlightAware Approximate
07:22AM 45.5401 160.5125 55° Northeast  Level FlightAware Approximate
07:23AM 45.6230 160.6798 55° Northeast  Level FlightAware Approximate
07:24AM 45.7055 160.8476 55° Northeast  Level FlightAware Approximate
07:25AM 45.7878 161.0159 55° Northeast  Level FlightAware Approximate
07:26AM 45.8699 161.1847 55° Northeast  Level FlightAware Approximate
07:27AM 45.9517 161.3540 55° Northeast  Level FlightAware Approximate
07:28AM 46.0333 161.5237 55° Northeast  Level FlightAware Approximate
07:29AM 46.1146 161.6940 55° Northeast  Level FlightAware Approximate
07:30AM 46.1957 161.8648 56° Northeast  Level FlightAware Approximate
07:30AM 46.4167 162.3167 60° Northeast 533 613 37,000  Level Anchorage Center
07:33AM 46.6667 162.9667 61° Northeast 545 627 37,000 78 Level Anchorage Center
07:42AM 47.3667 164.8333 62° Northeast 555 639 38,000 52 Climbing Anchorage Center
07:52AM 48.0500 166.8167 63° Northeast 575 662 38,000 -53 Level Anchorage Center
08:01AM 48.6833 168.7833 66° East 569 655 37,000  Descending Anchorage Center
08:02AM 48.7472 168.9990 66° East 575 662 38,000  Climbing FlightAware Transoceanic
08:02AM 48.7167 168.9000 66° East 567 652 37,000 -104 Descending Anchorage Center
08:11AM 49.3167 171.0667 67° East 576 663 37,000  Level Anchorage Center
08:12AM 49.3833 171.3333 68° East 590 679 37,000  Level Anchorage Center
08:13AM 49.4041 171.3416 68° East 567 652 37,000  Level FlightAware Transoceanic
08:13AM 49.4333 171.5333 69° East 590 679 37,000  Level Anchorage Center
08:14AM 49.4640 171.5669 68° East 567 652 37,000  Level FlightAware Transoceanic
08:14AM 49.5000 171.8000 69° East 600 690 37,000  Level Anchorage Center
08:15AM 49.5234 171.7928 68° East 567 652 37,000  Level FlightAware Transoceanic
08:15AM 49.5500 172.0000 69° East 590 679 37,000  Level Anchorage Center
08:16AM 49.5825 172.0192 68° East 567 652 37,000  Level FlightAware Transoceanic
08:16AM 49.6167 172.2500 68° East 590 679 37,000  Level Anchorage Center
08:17AM 49.6208 172.2072 68° East 576 663 37,000  Level FlightAware Transoceanic
08:17AM 49.6833 172.5000 68° East 580 667 37,000  Level Anchorage Center
08:18AM 49.6803 172.4370 68° East 576 663 37,000  Level FlightAware Transoceanic
08:18AM 49.7333 172.7000 69° East 590 679 37,000  Level Anchorage Center
08:19AM 49.8000 172.9667 69° East 590 679 37,000  Level Anchorage Center
08:20AM 49.8500 173.1667 69° East 590 679 37,000  Level Anchorage Center
08:21AM 49.9167 173.4167 67° East 580 667 37,000  Level Anchorage Center
08:22AM 49.9667 173.6167 69° East 580 667 37,000  Level Anchorage Center
08:23AM 50.0167 173.8667 73° East 580 667 37,000  Level Anchorage Center
08:24AM 50.0667 174.0833 70° East 590 679 37,000  Level Anchorage Center
08:25AM 50.1333 174.3500 69° East 600 690 37,000  Level Anchorage Center
08:26AM 50.2000 174.6000 67° East 590 679 37,000  Level Anchorage Center
08:27AM 50.2333 174.8167 76° East 580 667 37,000  Level Anchorage Center
08:28AM 50.3000 175.0833 69° East 590 679 37,000  Level Anchorage Center
08:29AM 50.3500 175.2833 69° East 580 667 37,000  Level Anchorage Center
08:30AM 50.4000 175.5500 74° East 590 679 37,000  Level Anchorage Center
08:31AM 50.4500 175.7667 70° East 590 679 37,000  Level Anchorage Center
08:32AM 50.5000 176.0167 72° East 590 679 37,000  Level Anchorage Center
08:33AM 50.5667 176.2833 68° East 590 679 37,000  Level Anchorage Center
08:34AM 50.6167 176.5000 70° East 590 679 37,000  Level Anchorage Center
08:35AM 50.6667 176.7500 72° East 570 656 37,000  Level Anchorage Center
08:36AM 50.7167 176.9667 70° East 580 667 37,000  Level Anchorage Center
08:37AM 50.7667 177.2167 72° East 570 656 37,000  Level Anchorage Center
08:38AM 50.8167 177.4333 70° East 580 667 37,000  Level Anchorage Center
08:39AM 50.8667 177.7000 73° East 590 679 37,000  Level Anchorage Center
08:40AM 50.9000 177.9167 76° East 590 679 37,000  Level Anchorage Center
08:41AM 50.9500 178.1667 72° East 570 656 37,000  Level Anchorage Center
08:42AM 51.0000 178.4167 72° East 550 633 37,000  Level Anchorage Center
08:43AM 51.0500 178.6333 70° East 570 656 37,000  Level Anchorage Center
08:44AM 51.1000 178.9000 73° East 550 633 37,000 50 Level Anchorage Center
08:45AM 51.1500 179.1167 70° East 610 702 37,100 545 Climbing Anchorage Center
08:46AM 51.2000 179.3667 72° East 550 633 38,100 950 Climbing Anchorage Center
08:47AM 51.2167 179.5667 82° East 540 621 39,000 450 Climbing Anchorage Center
08:48AM 51.2667 179.8333 73° East 560 644 39,000  Level Anchorage Center
08:49AM 51.3167 -179.8833 74° East 550 633 39,000  Level Anchorage Center
08:50AM 51.3500 -179.6833 75° East 540 621 39,000  Level Anchorage Center
08:59AM 51.7167 -177.6500 76° East 530 610 39,000  Level Anchorage Center
09:04AM 51.8667 -176.6500 99° East 549 632 39,000  Level Anchorage Center
09:09AM 51.7333 -175.3500 100° East 545 627 39,000  Level Anchorage Center
09:18AM 51.4500 -173.0500 102° East 547 629 39,000  Level Anchorage Center
09:32AM 51.0000 -170.0000 103° East 532 612 39,000  Level Oakland Oceanic (ODAPS)
09:40AM 50.7167 -168.2167 105° East 530 610 39,000  Level Oakland Oceanic (ODAPS)
09:53AM 50.1667 -165.1500 107° East 530 610 39,000  Level Oakland Oceanic (ODAPS)
10:07AM 49.5167 -162.1833 109° East 525 604 39,000  Level Oakland Oceanic (ODAPS)
10:18AM 49.0000 -160.0000 103° East 524 603 39,000  Level Oakland Oceanic (ODAPS)
10:21AM 48.8833 -159.2833 103° East 525 604 39,000  Level Oakland Oceanic (ODAPS)
10:35AM 48.3833 -156.3500 106° East 523 602 39,000  Level Oakland Oceanic (ODAPS)
10:49AM 47.8167 -153.4667 108° East 527 606 39,000  Level Oakland Oceanic (ODAPS)
11:03AM 47.1500 -150.6333 109° East 525 604 39,000  Level Oakland Oceanic (ODAPS)
11:06AM 47.0000 -150.0000 102° East 541 623 39,000  Level Oakland Oceanic (ODAPS)
11:17AM 46.6333 -147.7500 104° East 549 632 39,000  Level Oakland Oceanic (ODAPS)
11:30AM 46.1000 -144.8333 106° East 556 640 39,000  Level Oakland Oceanic (ODAPS)
11:44AM 45.4833 -141.9833 108° East 537 618 39,000  Level Oakland Oceanic (ODAPS)
11:54AM 45.0000 -140.0000 109° East 559 643 39,000  Level Oakland Oceanic (ODAPS)
11:58AM 44.7833 -139.1167 110° East 559 643 39,000  Level Oakland Oceanic (ODAPS)
12:12PM 44.0333 -136.3167 112° Southeast 550 633 39,000  Level Oakland Oceanic (ODAPS)
12:26PM 43.2333 -133.6333 114° Southeast 545 627 39,000  Level Oakland Oceanic (ODAPS)
12:40PM 42.3667 -131.0333 115° Southeast 549 632 39,000  Level Oakland Oceanic (ODAPS)
12:45PM 42.0000 -130.0000 120° Southeast 542 624 39,000  Level Oakland Oceanic (ODAPS)
12:54PM 41.3667 -128.5667 121° Southeast 542 624 39,000 -7 Level Oakland Oceanic (ODAPS)
01:00PM 40.8203 -127.4450 118° Southeast 542 624 38,900  Descending Oakland Center
01:01PM 40.7981 -127.3451 122° Southeast 542 624 39,000  Climbing FlightAware Transoceanic
01:01PM 40.7400 -127.2769 122° Southeast 542 624 38,900  Descending Oakland Center
01:02PM 40.7159 -127.1724 122° Southeast 542 624 39,000  Climbing FlightAware Transoceanic
01:02PM 40.6431 -127.0739 122° Southeast 542 624 38,900  Descending Oakland Center
01:03PM 40.6333 -127.0000 118° Southeast 542 624 39,000 95 Climbing FlightAware Transoceanic
01:04PM 40.5640 -126.8266 118° Southeast 542 624 39,000  Level FlightAware Transoceanic
01:04PM 40.5661 -126.9028 121° Southeast 543 625 39,000  Level Oakland Center
01:05PM 40.4944 -126.6535 118° Southeast 542 624 39,000  Level FlightAware Transoceanic
01:05PM 40.4975 -126.7253 117° Southeast 545 627 39,000  Level Oakland Center
01:06PM 40.4246 -126.4807 118° Southeast 542 624 39,000 -100 Level FlightAware Transoceanic
01:06PM 40.4283 -126.5497 117° Southeast 545 627 38,900  Descending Oakland Center
01:07PM 40.3556 -126.3756 119° Southeast 545 627 39,000  Climbing Oakland Center
01:08PM 40.2853 -126.2011 118° Southeast 545 627 38,900  Descending Oakland Center
01:09PM 40.2136 -126.0258 118° Southeast 546 628 39,000 49 Climbing Oakland Center
01:10PM 40.1433 -125.8514 118° Southeast 546 628 39,000  Level Oakland Center
01:11PM 40.0283 -125.6708 130° Southeast 542 624 39,000 -49 Level Oakland Center
01:12PM 39.9281 -125.5267 132° Southeast 540 621 38,900 -50 Descending Oakland Center
01:13PM 39.8278 -125.3844 133° Southeast 540 621 38,900  Level Oakland Center
01:14PM 39.7261 -125.2406 133° Southeast 540 621 38,900  Level Oakland Center
01:15PM 39.6244 -125.0978 133° Southeast 540 621 38,900 49 Level Oakland Center
01:16PM 39.5233 -124.9569 133° Southeast 541 623 39,000 49 Climbing Oakland Center
01:17PM 39.4089 -124.7978 133° Southeast 540 621 39,000  Level Oakland Center
01:18PM 39.3069 -124.6572 133° Southeast 539 620 39,000  Level Oakland Center
01:19PM 39.2061 -124.5158 133° Southeast 538 619 39,000  Level Oakland Center
01:20PM 39.1042 -124.3769 133° Southeast 538 619 39,000 -48 Level Oakland Center
01:21PM 39.0017 -124.2381 133° Southeast 538 619 38,900  Descending Oakland Center
01:22PM 38.8992 -124.0986 133° Southeast 537 618 39,000 50 Climbing Oakland Center
01:23PM 38.7758 -123.9331 134° Southeast 537 618 39,000  Level Oakland Center
01:24PM 38.6725 -123.7950 134° Southeast 537 618 39,000 -48 Level Oakland Center
01:25PM 38.5703 -123.6575 134° Southeast 538 619 38,900  Descending Oakland Center
01:31PM 37.9515 -122.8429 134° Southeast 539 620 39,000 15 Climbing FlightAware ADS-B
01:32PM 37.8799 -122.7499 134° Southeast 539 620 39,000  Level FlightAware ADS-B
01:32PM 37.8126 -122.6626 134° Southeast 539 620 39,000  Level FlightAware ADS-B
01:33PM 37.7276 -122.5528 134° Southeast 540 621 39,000  Level FlightAware ADS-B
01:34PM 37.6019 -122.3910 135° Southeast 539 620 39,000  Level FlightAware ADS-B
01:35PM 37.5479 -122.3220 134° Southeast 537 618 39,000  Level FlightAware ADS-B
01:35PM 37.7276 -122.5528 134° Southeast 538 619 39,000  Level FlightAware ADS-B
01:35PM 37.4915 -122.2500 135° Southeast 537 618 39,000  Level FlightAware ADS-B
01:36PM 37.4344 -122.1770 135° Southeast 536 617 39,000  Level FlightAware ADS-B
01:36PM 37.3750 -122.1010 135° Southeast 523 602 39,000  Level FlightAware ADS-B
01:37PM 37.3194 -122.0310 135° Southeast 515 593 39,000  Level FlightAware ADS-B
01:37PM 37.2693 -121.9680 135° Southeast 511 588 39,000  Level FlightAware ADS-B
01:38PM 37.2175 -121.9020 135° Southeast 510 587 39,000  Level FlightAware ADS-B
01:38PM 37.1644 -121.8350 135° Southeast 510 587 39,000  Level FlightAware ADS-B
01:39PM 37.1136 -121.7710 135° Southeast 509 586 39,000  Level FlightAware ADS-B
01:40PM 37.0575 -121.7010 135° Southeast 509 586 39,000  Level FlightAware ADS-B
01:41PM 36.9230 -121.5320 135° Southeast 509 586 39,000  Level FlightAware ADS-B
01:41PM 36.8681 -121.4640 135° Southeast 509 586 39,000  Level FlightAware ADS-B
01:42PM 36.8044 -121.3850 135° Southeast 511 588 39,000  Level FlightAware ADS-B
01:43PM 36.7139 -121.2775 135° Southeast 509 586 39,000 -50 Level Los Angeles Center
01:44PM 36.6136 -121.1550 136° Southeast 509 586 38,900  Descending Los Angeles Center
01:45PM 36.5131 -121.0303 135° Southeast 509 586 39,000  Climbing Los Angeles Center
01:46PM 36.4131 -120.9031 134° Southeast 510 587 38,900  Descending Los Angeles Center
01:52PM 35.8099 -120.1729 136° Southeast 501 577 39,000 15 Climbing FlightAware ADS-B
01:53PM 35.7475 -120.0983 136° Southeast 501 577 39,000  Level FlightAware ADS-B
01:53PM 35.6738 -120.0114 138° Southeast 499 574 39,000  Level FlightAware ADS-B
01:55PM 35.5529 -119.8972 145° Southeast 499 574 39,000  Level FlightAware ADS-B
01:55PM 35.4924 -119.8449 145° Southeast 497 572 39,000  Level FlightAware ADS-B
01:55PM 35.4724 -119.8277 144° Southeast 497 572 39,000  Level FlightAware ADS-B (EHVB)
01:56PM 35.4131 -119.7766 145° Southeast 496 571 39,000  Level FlightAware ADS-B
01:56PM 35.3527 -119.7247 145° Southeast 495 570 39,000 -1,500 Level FlightAware ADS-B
01:57PM 35.2620 -119.6466 145° Southeast 478 550 36,700 -3,437 Descending FlightAware ADS-B
01:58PM 35.1642 -119.5629 144° Southeast 477 549 33,100 -5,241 Descending FlightAware ADS-B (EHVB)
01:59PM 35.0975 -119.5061 144° Southeast 478 550 29,800 -4,633 Descending FlightAware ADS-B (EHVB)
01:59PM 35.0196 -119.4398 145° Southeast 482 555 27,000 -3,000 Descending FlightAware ADS-B (EHVB)
02:00PM 34.9485 -119.3790 144° Southeast 472 543 25,700 -1,899 Descending FlightAware ADS-B (EHVB)
02:01PM 34.8795 -119.3203 145° Southeast 445 512 24,500 -2,480 Descending FlightAware ADS-B (EHVB)
02:01PM 34.8195 -119.2699 145° Southeast 441 507 22,600 -2,614 Descending FlightAware ADS-B (EHVB)
02:02PM 34.7113 -119.1784 145° Southeast 430 495 20,100 -2,019 Descending FlightAware ADS-B (EHVB)
02:03PM 34.6452 -119.1228 145° Southeast 423 487 19,000 -1,704 Descending FlightAware ADS-B (EHVB)
02:04PM 34.5813 -119.0695 145° Southeast 419 482 17,800 -1,769 Descending FlightAware ADS-B (EHVB)
02:04PM 34.5219 -119.0195 145° Southeast 401 461 16,700 -1,558 Descending FlightAware ADS-B (EHVB)
02:05PM 34.4634 -118.9703 145° Southeast 392 451 15,800 -1,556 Descending FlightAware ADS-B
02:06PM 34.4004 -118.9178 145° Southeast 389 448 14,600 -1,600 Descending FlightAware ADS-B (EHVB)
02:06PM 34.3514 -118.8824 155° Southeast 381 438 13,800 -1,556 Descending FlightAware ADS-B
02:07PM 34.2698 -118.8495 162° South 378 435 12,500 -1,172 Descending FlightAware ADS-B (EHVB)
02:08PM 34.2065 -118.8260 162° South 351 404 12,100 -545 Descending FlightAware ADS-B (EHVB)
02:08PM 34.1489 -118.8049 163° South 340 391 11,800 -675 Descending FlightAware ADS-B (EHVB)
02:09PM 34.0855 -118.7817 162° South 339 390 11,200 -1,065 Descending FlightAware ADS-B (EHVB)
02:09PM 34.0580 -118.7629 137° Southeast 338 389 10,700 -1,333 Descending FlightAware ADS-B (EHVB)
02:10PM 34.0393 -118.7313 110° East 326 375 10,200 -1,135 Descending FlightAware ADS-B
02:10PM 34.0335 -118.7051 96° East 312 359 10,000 -529 Descending FlightAware ADS-B (EHVB)
02:10PM 34.0302 -118.6670 96° East 298 343 9,900 -146 Descending FlightAware ADS-B (EHVB)
02:11PM 34.0272 -118.6368 96° East 284 327 9,900 -439 Level FlightAware ADS-B (EHVB)
02:11PM 34.0239 -118.6025 96° East 278 320 9,600 -1,459 Descending FlightAware ADS-B (EHVB)
02:11PM 34.0218 -118.5793 95° East 274 315 9,000 -1,733 Descending FlightAware ADS-B (EHVB)
02:12PM 34.0186 -118.5439 96° East 270 311 8,300 -1,455 Descending FlightAware ADS-B
02:12PM 34.0131 -118.4874 97° East 252 290 7,400 -1,286 Descending FlightAware ADS-B
02:13PM 34.0113 -118.4576 87° East 244 281 7,100 -1,350 Descending FlightAware ADS-B
02:13PM 34.0136 -118.4298 84° East 238 274 6,500 -2,049 Descending FlightAware ADS-B
02:13PM 34.0161 -118.4020 84° East 232 267 5,700 -2,143 Descending FlightAware ADS-B
02:13PM 34.0168 -118.3933 83° East 230 265 5,500 -1,800 Descending FlightAware ADS-B (OPMT / MUX)
02:14PM 34.0179 -118.3824 83° East 228 262 5,100 -1,818 Descending FlightAware ADS-B
02:14PM 34.0209 -118.3539 83° East 221 254 4,500 -1,350 Descending FlightAware ADS-B
02:14PM 34.0232 -118.3322 82° East 202 232 4,200 -667 Descending FlightAware ADS-B
02:14PM 34.0243 -118.3216 82° East 198 228 4,200 -375 Level FlightAware ADS-B (OPMT / MUX)
02:16PM 34.0307 -118.2467 106° East 198 228 3,700 -600 Descending FlightAware ADS-B
02:16PM 34.0218 -118.2291 137° Southeast 204 235 3,300 -1,143 Descending FlightAware ADS-B (OPMT / MUX)
02:16PM 34.0176 -118.2261 154° Southeast 205 236 3,300 -1,091 Level FlightAware ADS-B (OPMT / MUX)
02:16PM 34.0010 -118.2249 195° South 201 231 2,900 -915 Descending FlightAware ADS-B
02:17PM 33.9737 -118.2523 228° Southwest 183 211 2,400 -640 Descending FlightAware ADS-B
02:18PM 33.9667 -118.2833 228° Southwest 175 201 2,100 -632 Descending Southern California TRACON
02:18PM 33.9619 -118.3108 258° West 175 201 1,600 -850 Descending Los Angeles Center
02:20PM 33.9556 -118.3684 263° West 139 160 400 -726 Descending FlightAware ADS-B
02:20PM 33.9514 -118.4144 263° West 146 168 100 -391 Descending Los Angeles Center
02:22PM 33.9425 -118.4081 239° Southwest  Level Estimated
02:29PM 33.9425 -118.4081 246° West  Level Estimated